sensor_id;sensor_type;location;lat;lon;timestamp;P1;durP1;ratioP1;P2;durP2;ratioP2
5303;SDS011;2674;49.722;10.892;2022-12-07T00:01:07;9.63;;;7.90;;
5303;SDS011;2674;49.722;10.892;2022-12-07T00:03:38;9.23;;;6.63;;
5303;SDS011;2674;49.722;10.892;2022-12-07T00:06:05;12.53;;;9.40;;
5303;SDS011;2674;49.722;10.892;2022-12-07T00:08:32;10.80;;;7.23;;
5303;SDS011;2674;49.722;10.892;2022-12-07T00:11:05;9.70;;;7.00;;
5303;SDS011;2674;49.722;10.892;2022-12-07T00:13:34;11.73;;;8.00;;
5303;SDS011;2674;49.722;10.892;2022-12-07T00:16:01;9.90;;;7.60;;
5303;SDS011;2674;49.722;10.892;2022-12-07T00:18:31;11.30;;;7.60;;
5303;SDS011;2674;49.722;10.892;2022-12-07T00:21:01;11.20;;;7.70;;
5303;SDS011;2674;49.722;10.892;2022-12-07T00:23:27;13.50;;;7.93;;
5303;SDS011;2674;49.722;10.892;2022-12-07T00:25:53;9.10;;;7.87;;
5303;SDS011;2674;49.722;10.892;2022-12-07T00:28:19;11.57;;;8.20;;
5303;SDS011;2674;49.722;10.892;2022-12-07T00:30:44;10.97;;;7.93;;
5303;SDS011;2674;49.722;10.892;2022-12-07T00:33:10;11.63;;;7.33;;
5303;SDS011;2674;49.722;10.892;2022-12-07T00:35:36;13.13;;;8.63;;
5303;SDS011;2674;49.722;10.892;2022-12-07T00:38:02;13.23;;;7.93;;
5303;SDS011;2674;49.722;10.892;2022-12-07T00:40:28;14.67;;;8.57;;
5303;SDS011;2674;49.722;10.892;2022-12-07T00:42:53;13.63;;;9.43;;
5303;SDS011;2674;49.722;10.892;2022-12-07T00:45:19;10.60;;;7.80;;
5303;SDS011;2674;49.722;10.892;2022-12-07T00:47:45;11.10;;;8.20;;
5303;SDS011;2674;49.722;10.892;2022-12-07T00:50:11;12.63;;;8.37;;
5303;SDS011;2674;49.722;10.892;2022-12-07T00:52:36;11.47;;;8.67;;
5303;SDS011;2674;49.722;10.892;2022-12-07T00:55:02;22.33;;;8.50;;
5303;SDS011;2674;49.722;10.892;2022-12-07T00:57:30;9.97;;;7.40;;
5303;SDS011;2674;49.722;10.892;2022-12-07T00:59:56;11.87;;;7.93;;
5303;SDS011;2674;49.722;10.892;2022-12-07T01:02:22;14.03;;;7.87;;
5303;SDS011;2674;49.722;10.892;2022-12-07T01:04:48;13.20;;;8.40;;
5303;SDS011;2674;49.722;10.892;2022-12-07T01:07:14;11.30;;;7.27;;
5303;SDS011;2674;49.722;10.892;2022-12-07T01:09:40;15.77;;;9.37;;
5303;SDS011;2674;49.722;10.892;2022-12-07T01:12:06;15.17;;;9.50;;
5303;SDS011;2674;49.722;10.892;2022-12-07T01:14:32;11.43;;;8.93;;
5303;SDS011;2674;49.722;10.892;2022-12-07T01:16:57;12.97;;;9.10;;
5303;SDS011;2674;49.722;10.892;2022-12-07T01:19:23;12.97;;;8.13;;
5303;SDS011;2674;49.722;10.892;2022-12-07T01:21:49;10.80;;;7.60;;
5303;SDS011;2674;49.722;10.892;2022-12-07T01:24:15;13.67;;;8.83;;
5303;SDS011;2674;49.722;10.892;2022-12-07T01:26:41;12.93;;;8.50;;
5303;SDS011;2674;49.722;10.892;2022-12-07T01:29:06;15.40;;;10.23;;
5303;SDS011;2674;49.722;10.892;2022-12-07T01:31:33;14.77;;;7.60;;
5303;SDS011;2674;49.722;10.892;2022-12-07T01:33:59;14.33;;;9.80;;
5303;SDS011;2674;49.722;10.892;2022-12-07T01:36:27;12.53;;;8.40;;
5303;SDS011;2674;49.722;10.892;2022-12-07T01:38:59;14.43;;;8.83;;
5303;SDS011;2674;49.722;10.892;2022-12-07T01:41:28;13.80;;;9.30;;
5303;SDS011;2674;49.722;10.892;2022-12-07T01:46:48;15.33;;;9.13;;
5303;SDS011;2674;49.722;10.892;2022-12-07T01:49:42;12.83;;;8.50;;
5303;SDS011;2674;49.722;10.892;2022-12-07T01:54:54;15.13;;;9.87;;
5303;SDS011;2674;49.722;10.892;2022-12-07T01:57:24;13.20;;;9.13;;
5303;SDS011;2674;49.722;10.892;2022-12-07T01:59:51;14.70;;;10.10;;
5303;SDS011;2674;49.722;10.892;2022-12-07T02:02:19;12.90;;;9.47;;
5303;SDS011;2674;49.722;10.892;2022-12-07T02:04:51;14.03;;;9.03;;
5303;SDS011;2674;49.722;10.892;2022-12-07T02:07:20;14.93;;;9.47;;
5303;SDS011;2674;49.722;10.892;2022-12-07T02:09:47;16.20;;;9.63;;
5303;SDS011;2674;49.722;10.892;2022-12-07T02:12:13;13.47;;;9.67;;
5303;SDS011;2674;49.722;10.892;2022-12-07T02:14:39;17.03;;;9.77;;
5303;SDS011;2674;49.722;10.892;2022-12-07T02:17:22;17.90;;;11.47;;
5303;SDS011;2674;49.722;10.892;2022-12-07T02:20:07;17.83;;;10.10;;
5303;SDS011;2674;49.722;10.892;2022-12-07T02:31:21;15.50;;;8.93;;
5303;SDS011;2674;49.722;10.892;2022-12-07T02:33:52;16.87;;;10.10;;
5303;SDS011;2674;49.722;10.892;2022-12-07T02:36:27;14.37;;;9.50;;
5303;SDS011;2674;49.722;10.892;2022-12-07T02:39:07;18.20;;;10.33;;
5303;SDS011;2674;49.722;10.892;2022-12-07T02:41:51;12.27;;;8.80;;
5303;SDS011;2674;49.722;10.892;2022-12-07T02:44:22;14.27;;;9.23;;
5303;SDS011;2674;49.722;10.892;2022-12-07T02:46:53;16.13;;;9.60;;
5303;SDS011;2674;49.722;10.892;2022-12-07T02:49:24;15.13;;;9.97;;
5303;SDS011;2674;49.722;10.892;2022-12-07T02:51:52;18.47;;;9.10;;
5303;SDS011;2674;49.722;10.892;2022-12-07T02:54:19;15.53;;;9.83;;
5303;SDS011;2674;49.722;10.892;2022-12-07T02:56:48;17.67;;;9.93;;
5303;SDS011;2674;49.722;10.892;2022-12-07T02:59:37;15.80;;;9.37;;
5303;SDS011;2674;49.722;10.892;2022-12-07T03:08:02;17.47;;;10.50;;
5303;SDS011;2674;49.722;10.892;2022-12-07T03:10:40;16.77;;;10.40;;
5303;SDS011;2674;49.722;10.892;2022-12-07T03:18:25;15.33;;;9.60;;
5303;SDS011;2674;49.722;10.892;2022-12-07T03:20:56;13.30;;;8.40;;
5303;SDS011;2674;49.722;10.892;2022-12-07T03:23:27;17.60;;;10.23;;
5303;SDS011;2674;49.722;10.892;2022-12-07T03:25:56;18.03;;;10.37;;
5303;SDS011;2674;49.722;10.892;2022-12-07T03:28:25;14.50;;;9.43;;
5303;SDS011;2674;49.722;10.892;2022-12-07T03:30:56;16.00;;;10.60;;
5303;SDS011;2674;49.722;10.892;2022-12-07T03:33:36;26.37;;;11.60;;
5303;SDS011;2674;49.722;10.892;2022-12-07T03:36:18;16.03;;;9.90;;
5303;SDS011;2674;49.722;10.892;2022-12-07T03:39:13;23.20;;;11.20;;
5303;SDS011;2674;49.722;10.892;2022-12-07T03:41:43;15.87;;;9.63;;
5303;SDS011;2674;49.722;10.892;2022-12-07T03:44:09;20.03;;;13.03;;
5303;SDS011;2674;49.722;10.892;2022-12-07T03:46:37;19.83;;;11.70;;
5303;SDS011;2674;49.722;10.892;2022-12-07T03:50:25;15.43;;;10.17;;
5303;SDS011;2674;49.722;10.892;2022-12-07T03:52:28;23.20;;;12.47;;
5303;SDS011;2674;49.722;10.892;2022-12-07T03:55:32;22.50;;;11.20;;
5303;SDS011;2674;49.722;10.892;2022-12-07T03:58:05;17.27;;;10.67;;
5303;SDS011;2674;49.722;10.892;2022-12-07T04:00:34;19.70;;;10.90;;
5303;SDS011;2674;49.722;10.892;2022-12-07T04:03:00;16.63;;;11.30;;
5303;SDS011;2674;49.722;10.892;2022-12-07T04:05:26;19.80;;;11.70;;
5303;SDS011;2674;49.722;10.892;2022-12-07T04:07:52;17.53;;;11.30;;
5303;SDS011;2674;49.722;10.892;2022-12-07T04:10:18;17.33;;;10.23;;
5303;SDS011;2674;49.722;10.892;2022-12-07T04:12:45;25.77;;;13.60;;
5303;SDS011;2674;49.722;10.892;2022-12-07T04:15:11;19.47;;;12.10;;
5303;SDS011;2674;49.722;10.892;2022-12-07T04:17:37;19.10;;;11.33;;
5303;SDS011;2674;49.722;10.892;2022-12-07T04:20:03;19.97;;;10.87;;
5303;SDS011;2674;49.722;10.892;2022-12-07T04:22:29;23.50;;;13.00;;
5303;SDS011;2674;49.722;10.892;2022-12-07T04:24:55;17.53;;;10.33;;
5303;SDS011;2674;49.722;10.892;2022-12-07T04:27:21;22.17;;;12.87;;
5303;SDS011;2674;49.722;10.892;2022-12-07T04:29:47;22.10;;;11.70;;
5303;SDS011;2674;49.722;10.892;2022-12-07T04:32:12;23.27;;;12.10;;
5303;SDS011;2674;49.722;10.892;2022-12-07T04:34:38;22.13;;;12.43;;
5303;SDS011;2674;49.722;10.892;2022-12-07T04:37:04;23.57;;;13.37;;
5303;SDS011;2674;49.722;10.892;2022-12-07T04:39:31;24.03;;;12.60;;
5303;SDS011;2674;49.722;10.892;2022-12-07T04:41:58;23.70;;;12.57;;
5303;SDS011;2674;49.722;10.892;2022-12-07T04:44:25;24.33;;;12.40;;
5303;SDS011;2674;49.722;10.892;2022-12-07T04:46:52;17.30;;;11.00;;
5303;SDS011;2674;49.722;10.892;2022-12-07T04:49:19;23.20;;;13.97;;
5303;SDS011;2674;49.722;10.892;2022-12-07T04:51:46;24.93;;;12.87;;
5303;SDS011;2674;49.722;10.892;2022-12-07T04:54:13;24.03;;;13.20;;
5303;SDS011;2674;49.722;10.892;2022-12-07T04:56:40;23.00;;;13.50;;
5303;SDS011;2674;49.722;10.892;2022-12-07T04:59:06;21.60;;;12.23;;
5303;SDS011;2674;49.722;10.892;2022-12-07T05:01:32;23.70;;;13.47;;
5303;SDS011;2674;49.722;10.892;2022-12-07T05:03:58;23.60;;;12.67;;
5303;SDS011;2674;49.722;10.892;2022-12-07T05:06:24;23.53;;;12.27;;
5303;SDS011;2674;49.722;10.892;2022-12-07T05:08:50;21.03;;;12.57;;
5303;SDS011;2674;49.722;10.892;2022-12-07T05:11:16;23.27;;;12.33;;
5303;SDS011;2674;49.722;10.892;2022-12-07T05:14:02;23.33;;;11.60;;
5303;SDS011;2674;49.722;10.892;2022-12-07T05:16:29;28.43;;;13.33;;
5303;SDS011;2674;49.722;10.892;2022-12-07T05:18:55;26.50;;;14.90;;
5303;SDS011;2674;49.722;10.892;2022-12-07T05:21:21;24.00;;;12.43;;
5303;SDS011;2674;49.722;10.892;2022-12-07T05:23:47;26.07;;;14.40;;
5303;SDS011;2674;49.722;10.892;2022-12-07T05:26:13;28.03;;;14.67;;
5303;SDS011;2674;49.722;10.892;2022-12-07T05:28:39;25.73;;;14.20;;
5303;SDS011;2674;49.722;10.892;2022-12-07T05:31:05;25.10;;;12.57;;
5303;SDS011;2674;49.722;10.892;2022-12-07T05:33:30;27.20;;;14.17;;
5303;SDS011;2674;49.722;10.892;2022-12-07T05:35:56;27.30;;;15.23;;
5303;SDS011;2674;49.722;10.892;2022-12-07T05:38:23;31.10;;;12.90;;
5303;SDS011;2674;49.722;10.892;2022-12-07T05:40:50;29.23;;;14.47;;
5303;SDS011;2674;49.722;10.892;2022-12-07T05:43:16;25.20;;;14.43;;
5303;SDS011;2674;49.722;10.892;2022-12-07T05:45:41;26.83;;;14.20;;
5303;SDS011;2674;49.722;10.892;2022-12-07T05:48:07;25.57;;;14.37;;
5303;SDS011;2674;49.722;10.892;2022-12-07T05:50:33;23.23;;;12.90;;
5303;SDS011;2674;49.722;10.892;2022-12-07T05:52:59;23.30;;;13.73;;
5303;SDS011;2674;49.722;10.892;2022-12-07T05:55:25;23.33;;;13.60;;
5303;SDS011;2674;49.722;10.892;2022-12-07T05:57:51;23.60;;;13.07;;
5303;SDS011;2674;49.722;10.892;2022-12-07T06:00:35;28.13;;;13.60;;
5303;SDS011;2674;49.722;10.892;2022-12-07T06:03:01;22.17;;;12.97;;
5303;SDS011;2674;49.722;10.892;2022-12-07T06:05:27;25.77;;;14.00;;
5303;SDS011;2674;49.722;10.892;2022-12-07T06:07:53;24.97;;;14.67;;
5303;SDS011;2674;49.722;10.892;2022-12-07T06:10:18;30.07;;;15.37;;
5303;SDS011;2674;49.722;10.892;2022-12-07T06:12:44;27.30;;;15.57;;
5303;SDS011;2674;49.722;10.892;2022-12-07T06:15:11;27.93;;;14.27;;
5303;SDS011;2674;49.722;10.892;2022-12-07T06:17:38;23.37;;;13.53;;
5303;SDS011;2674;49.722;10.892;2022-12-07T06:20:04;24.40;;;13.80;;
5303;SDS011;2674;49.722;10.892;2022-12-07T06:22:30;26.27;;;14.70;;
5303;SDS011;2674;49.722;10.892;2022-12-07T06:24:56;29.97;;;15.50;;
5303;SDS011;2674;49.722;10.892;2022-12-07T06:27:22;25.57;;;13.63;;
5303;SDS011;2674;49.722;10.892;2022-12-07T06:29:48;30.77;;;16.17;;
5303;SDS011;2674;49.722;10.892;2022-12-07T06:32:13;22.53;;;12.73;;
5303;SDS011;2674;49.722;10.892;2022-12-07T06:34:39;30.20;;;14.47;;
5303;SDS011;2674;49.722;10.892;2022-12-07T06:37:05;27.43;;;13.90;;
5303;SDS011;2674;49.722;10.892;2022-12-07T06:39:31;25.20;;;13.70;;
5303;SDS011;2674;49.722;10.892;2022-12-07T06:41:57;27.30;;;13.93;;
5303;SDS011;2674;49.722;10.892;2022-12-07T06:44:23;28.70;;;14.60;;
5303;SDS011;2674;49.722;10.892;2022-12-07T06:46:50;21.40;;;13.03;;
5303;SDS011;2674;49.722;10.892;2022-12-07T06:49:16;22.97;;;13.37;;
5303;SDS011;2674;49.722;10.892;2022-12-07T06:51:42;22.07;;;13.50;;
5303;SDS011;2674;49.722;10.892;2022-12-07T06:54:12;25.57;;;12.90;;
5303;SDS011;2674;49.722;10.892;2022-12-07T06:56:39;24.50;;;13.97;;
5303;SDS011;2674;49.722;10.892;2022-12-07T06:59:05;25.60;;;13.80;;
5303;SDS011;2674;49.722;10.892;2022-12-07T07:01:32;24.47;;;13.87;;
5303;SDS011;2674;49.722;10.892;2022-12-07T07:04:00;24.20;;;13.73;;
5303;SDS011;2674;49.722;10.892;2022-12-07T07:06:26;23.40;;;13.10;;
5303;SDS011;2674;49.722;10.892;2022-12-07T07:08:52;20.63;;;12.43;;
5303;SDS011;2674;49.722;10.892;2022-12-07T07:11:17;25.83;;;14.57;;
5303;SDS011;2674;49.722;10.892;2022-12-07T07:13:44;30.93;;;14.13;;
5303;SDS011;2674;49.722;10.892;2022-12-07T07:16:10;25.60;;;13.87;;
5303;SDS011;2674;49.722;10.892;2022-12-07T07:18:36;24.00;;;12.93;;
5303;SDS011;2674;49.722;10.892;2022-12-07T07:21:02;21.60;;;12.57;;
5303;SDS011;2674;49.722;10.892;2022-12-07T07:23:29;20.53;;;12.47;;
5303;SDS011;2674;49.722;10.892;2022-12-07T07:25:55;21.67;;;12.23;;
5303;SDS011;2674;49.722;10.892;2022-12-07T07:28:21;18.13;;;11.57;;
5303;SDS011;2674;49.722;10.892;2022-12-07T07:30:47;23.40;;;13.13;;
5303;SDS011;2674;49.722;10.892;2022-12-07T07:33:13;19.80;;;12.93;;
5303;SDS011;2674;49.722;10.892;2022-12-07T07:35:39;22.37;;;12.97;;
5303;SDS011;2674;49.722;10.892;2022-12-07T07:38:05;26.30;;;13.13;;
5303;SDS011;2674;49.722;10.892;2022-12-07T07:40:31;20.80;;;12.77;;
5303;SDS011;2674;49.722;10.892;2022-12-07T07:42:57;24.20;;;13.63;;
5303;SDS011;2674;49.722;10.892;2022-12-07T07:45:24;27.03;;;14.63;;
5303;SDS011;2674;49.722;10.892;2022-12-07T07:47:51;21.67;;;12.70;;
5303;SDS011;2674;49.722;10.892;2022-12-07T07:50:17;21.33;;;12.50;;
5303;SDS011;2674;49.722;10.892;2022-12-07T07:52:44;21.07;;;11.50;;
5303;SDS011;2674;49.722;10.892;2022-12-07T07:55:10;20.90;;;11.83;;
5303;SDS011;2674;49.722;10.892;2022-12-07T07:57:37;24.27;;;13.33;;
5303;SDS011;2674;49.722;10.892;2022-12-07T08:00:04;20.87;;;12.47;;
5303;SDS011;2674;49.722;10.892;2022-12-07T08:02:36;21.20;;;11.87;;
5303;SDS011;2674;49.722;10.892;2022-12-07T08:05:02;23.70;;;13.80;;
5303;SDS011;2674;49.722;10.892;2022-12-07T08:07:28;20.73;;;11.47;;
5303;SDS011;2674;49.722;10.892;2022-12-07T08:09:54;28.90;;;14.00;;
5303;SDS011;2674;49.722;10.892;2022-12-07T08:12:21;26.73;;;14.53;;
5303;SDS011;2674;49.722;10.892;2022-12-07T08:14:46;22.97;;;13.07;;
5303;SDS011;2674;49.722;10.892;2022-12-07T08:17:12;20.10;;;12.10;;
5303;SDS011;2674;49.722;10.892;2022-12-07T08:19:38;23.30;;;13.57;;
5303;SDS011;2674;49.722;10.892;2022-12-07T08:22:04;25.47;;;13.73;;
5303;SDS011;2674;49.722;10.892;2022-12-07T08:24:32;21.47;;;12.77;;
5303;SDS011;2674;49.722;10.892;2022-12-07T08:26:59;21.23;;;12.97;;
5303;SDS011;2674;49.722;10.892;2022-12-07T08:29:28;25.03;;;12.73;;
5303;SDS011;2674;49.722;10.892;2022-12-07T08:31:54;23.80;;;12.93;;
5303;SDS011;2674;49.722;10.892;2022-12-07T08:34:20;24.53;;;12.03;;
5303;SDS011;2674;49.722;10.892;2022-12-07T08:36:45;25.70;;;12.83;;
5303;SDS011;2674;49.722;10.892;2022-12-07T08:39:11;23.40;;;13.00;;
5303;SDS011;2674;49.722;10.892;2022-12-07T08:41:37;24.50;;;12.80;;
5303;SDS011;2674;49.722;10.892;2022-12-07T08:44:03;22.23;;;12.60;;
5303;SDS011;2674;49.722;10.892;2022-12-07T08:49:00;22.60;;;13.20;;
5303;SDS011;2674;49.722;10.892;2022-12-07T08:51:29;19.63;;;10.80;;
5303;SDS011;2674;49.722;10.892;2022-12-07T08:53:55;21.27;;;11.57;;
5303;SDS011;2674;49.722;10.892;2022-12-07T08:56:23;23.87;;;13.30;;
5303;SDS011;2674;49.722;10.892;2022-12-07T08:58:50;26.10;;;13.30;;
5303;SDS011;2674;49.722;10.892;2022-12-07T09:01:17;20.93;;;11.80;;
5303;SDS011;2674;49.722;10.892;2022-12-07T09:03:42;18.67;;;11.50;;
5303;SDS011;2674;49.722;10.892;2022-12-07T09:06:08;20.23;;;12.37;;
5303;SDS011;2674;49.722;10.892;2022-12-07T09:08:35;21.53;;;12.63;;
5303;SDS011;2674;49.722;10.892;2022-12-07T09:11:04;23.93;;;13.67;;
5303;SDS011;2674;49.722;10.892;2022-12-07T09:13:30;26.33;;;14.37;;
5303;SDS011;2674;49.722;10.892;2022-12-07T09:15:59;20.73;;;12.33;;
5303;SDS011;2674;49.722;10.892;2022-12-07T09:18:25;21.73;;;12.13;;
5303;SDS011;2674;49.722;10.892;2022-12-07T09:20:51;17.87;;;11.70;;
5303;SDS011;2674;49.722;10.892;2022-12-07T09:23:16;25.57;;;12.70;;
5303;SDS011;2674;49.722;10.892;2022-12-07T09:25:42;24.43;;;12.07;;
5303;SDS011;2674;49.722;10.892;2022-12-07T09:28:08;24.03;;;13.17;;
5303;SDS011;2674;49.722;10.892;2022-12-07T09:30:34;20.80;;;13.03;;
5303;SDS011;2674;49.722;10.892;2022-12-07T09:33:00;22.57;;;11.70;;
5303;SDS011;2674;49.722;10.892;2022-12-07T09:35:26;20.70;;;11.80;;
5303;SDS011;2674;49.722;10.892;2022-12-07T09:37:52;22.87;;;13.40;;
5303;SDS011;2674;49.722;10.892;2022-12-07T09:40:19;25.07;;;13.87;;
5303;SDS011;2674;49.722;10.892;2022-12-07T09:42:48;22.30;;;12.70;;
5303;SDS011;2674;49.722;10.892;2022-12-07T09:45:19;18.10;;;11.70;;
5303;SDS011;2674;49.722;10.892;2022-12-07T09:47:46;17.40;;;11.20;;
5303;SDS011;2674;49.722;10.892;2022-12-07T09:50:14;19.13;;;11.50;;
5303;SDS011;2674;49.722;10.892;2022-12-07T09:52:50;23.47;;;12.00;;
5303;SDS011;2674;49.722;10.892;2022-12-07T09:55:24;23.93;;;12.00;;
5303;SDS011;2674;49.722;10.892;2022-12-07T09:57:53;22.03;;;12.80;;
5303;SDS011;2674;49.722;10.892;2022-12-07T10:00:20;17.73;;;10.77;;
5303;SDS011;2674;49.722;10.892;2022-12-07T10:02:50;20.37;;;12.60;;
5303;SDS011;2674;49.722;10.892;2022-12-07T10:05:23;20.77;;;12.10;;
5303;SDS011;2674;49.722;10.892;2022-12-07T10:07:55;25.23;;;11.70;;
5303;SDS011;2674;49.722;10.892;2022-12-07T10:10:30;20.30;;;12.17;;
5303;SDS011;2674;49.722;10.892;2022-12-07T10:13:01;18.40;;;11.43;;
5303;SDS011;2674;49.722;10.892;2022-12-07T10:21:17;17.00;;;10.40;;
5303;SDS011;2674;49.722;10.892;2022-12-07T10:24:13;19.53;;;11.57;;
5303;SDS011;2674;49.722;10.892;2022-12-07T10:29:22;21.13;;;11.67;;
5303;SDS011;2674;49.722;10.892;2022-12-07T10:32:03;21.63;;;12.33;;
5303;SDS011;2674;49.722;10.892;2022-12-07T10:39:53;25.13;;;13.17;;
5303;SDS011;2674;49.722;10.892;2022-12-07T10:44:48;17.50;;;11.43;;
5303;SDS011;2674;49.722;10.892;2022-12-07T10:58:40;25.97;;;11.77;;
5303;SDS011;2674;49.722;10.892;2022-12-07T11:07:22;30.63;;;12.00;;
5303;SDS011;2674;49.722;10.892;2022-12-07T11:10:01;20.70;;;11.07;;
5303;SDS011;2674;49.722;10.892;2022-12-07T11:18:11;25.63;;;10.87;;
5303;SDS011;2674;49.722;10.892;2022-12-07T11:20:50;15.83;;;10.10;;
5303;SDS011;2674;49.722;10.892;2022-12-07T11:23:37;19.40;;;11.67;;
5303;SDS011;2674;49.722;10.892;2022-12-07T11:35:22;15.20;;;9.63;;
5303;SDS011;2674;49.722;10.892;2022-12-07T11:37:55;18.17;;;11.23;;
5303;SDS011;2674;49.722;10.892;2022-12-07T11:40:26;13.40;;;9.30;;
5303;SDS011;2674;49.722;10.892;2022-12-07T11:42:58;20.90;;;11.83;;
5303;SDS011;2674;49.722;10.892;2022-12-07T11:45:31;13.37;;;8.70;;
5303;SDS011;2674;49.722;10.892;2022-12-07T11:50:27;13.83;;;8.20;;
5303;SDS011;2674;49.722;10.892;2022-12-07T11:53:38;18.43;;;11.03;;
5303;SDS011;2674;49.722;10.892;2022-12-07T12:03:46;16.90;;;10.87;;
5303;SDS011;2674;49.722;10.892;2022-12-07T12:06:14;14.77;;;9.20;;
5303;SDS011;2674;49.722;10.892;2022-12-07T12:09:02;16.40;;;9.90;;
5303;SDS011;2674;49.722;10.892;2022-12-07T12:11:47;22.50;;;9.90;;
5303;SDS011;2674;49.722;10.892;2022-12-07T12:22:40;14.77;;;10.53;;
5303;SDS011;2674;49.722;10.892;2022-12-07T12:25:28;14.50;;;10.43;;
5303;SDS011;2674;49.722;10.892;2022-12-07T12:28:00;16.33;;;11.40;;
5303;SDS011;2674;49.722;10.892;2022-12-07T12:30:36;17.70;;;10.80;;
5303;SDS011;2674;49.722;10.892;2022-12-07T12:33:06;28.13;;;12.70;;
5303;SDS011;2674;49.722;10.892;2022-12-07T12:38:51;16.33;;;9.37;;
5303;SDS011;2674;49.722;10.892;2022-12-07T12:55:18;10.27;;;8.13;;
5303;SDS011;2674;49.722;10.892;2022-12-07T12:57:36;24.87;;;9.53;;
5303;SDS011;2674;49.722;10.892;2022-12-07T13:00:20;15.70;;;9.30;;
5303;SDS011;2674;49.722;10.892;2022-12-07T13:05:16;15.70;;;9.23;;
5303;SDS011;2674;49.722;10.892;2022-12-07T13:15:37;12.13;;;7.70;;
5303;SDS011;2674;49.722;10.892;2022-12-07T13:21:38;12.63;;;8.50;;
5303;SDS011;2674;49.722;10.892;2022-12-07T13:31:46;14.30;;;8.23;;
5303;SDS011;2674;49.722;10.892;2022-12-07T13:37:33;13.37;;;8.40;;
5303;SDS011;2674;49.722;10.892;2022-12-07T13:39:59;16.07;;;9.60;;
5303;SDS011;2674;49.722;10.892;2022-12-07T13:42:40;13.03;;;9.37;;
5303;SDS011;2674;49.722;10.892;2022-12-07T13:48:14;12.97;;;8.93;;
5303;SDS011;2674;49.722;10.892;2022-12-07T13:50:58;14.23;;;9.20;;
5303;SDS011;2674;49.722;10.892;2022-12-07T13:53:26;13.17;;;8.70;;
5303;SDS011;2674;49.722;10.892;2022-12-07T13:55:56;14.37;;;9.23;;
5303;SDS011;2674;49.722;10.892;2022-12-07T13:58:23;14.37;;;9.40;;
5303;SDS011;2674;49.722;10.892;2022-12-07T14:00:51;11.07;;;7.67;;
5303;SDS011;2674;49.722;10.892;2022-12-07T14:05:43;13.30;;;9.10;;
5303;SDS011;2674;49.722;10.892;2022-12-07T14:10:40;14.40;;;8.07;;
5303;SDS011;2674;49.722;10.892;2022-12-07T14:13:23;11.80;;;7.70;;
5303;SDS011;2674;49.722;10.892;2022-12-07T14:15:54;16.50;;;9.80;;
5303;SDS011;2674;49.722;10.892;2022-12-07T14:21:26;16.00;;;10.07;;
5303;SDS011;2674;49.722;10.892;2022-12-07T14:26:37;12.87;;;8.90;;
5303;SDS011;2674;49.722;10.892;2022-12-07T14:31:55;11.33;;;7.43;;
5303;SDS011;2674;49.722;10.892;2022-12-07T14:34:24;11.00;;;8.47;;
5303;SDS011;2674;49.722;10.892;2022-12-07T14:36:50;17.60;;;10.10;;
5303;SDS011;2674;49.722;10.892;2022-12-07T14:39:16;13.73;;;9.57;;
5303;SDS011;2674;49.722;10.892;2022-12-07T14:41:42;16.07;;;12.10;;
5303;SDS011;2674;49.722;10.892;2022-12-07T14:44:18;16.97;;;9.97;;
5303;SDS011;2674;49.722;10.892;2022-12-07T14:46:48;12.63;;;7.80;;
5303;SDS011;2674;49.722;10.892;2022-12-07T14:49:15;14.17;;;8.50;;
5303;SDS011;2674;49.722;10.892;2022-12-07T14:51:41;13.10;;;9.20;;
5303;SDS011;2674;49.722;10.892;2022-12-07T14:54:12;20.27;;;9.03;;
5303;SDS011;2674;49.722;10.892;2022-12-07T14:56:43;12.80;;;9.13;;
5303;SDS011;2674;49.722;10.892;2022-12-07T14:59:10;11.40;;;7.60;;
5303;SDS011;2674;49.722;10.892;2022-12-07T15:01:37;13.83;;;8.90;;
5303;SDS011;2674;49.722;10.892;2022-12-07T15:04:03;15.00;;;9.63;;
5303;SDS011;2674;49.722;10.892;2022-12-07T15:06:29;16.17;;;9.80;;
5303;SDS011;2674;49.722;10.892;2022-12-07T15:08:55;18.17;;;10.00;;
5303;SDS011;2674;49.722;10.892;2022-12-07T15:11:21;13.47;;;9.87;;
5303;SDS011;2674;49.722;10.892;2022-12-07T15:13:47;12.97;;;8.57;;
5303;SDS011;2674;49.722;10.892;2022-12-07T15:16:31;15.47;;;10.13;;
5303;SDS011;2674;49.722;10.892;2022-12-07T15:18:57;16.27;;;9.40;;
5303;SDS011;2674;49.722;10.892;2022-12-07T15:21:22;14.80;;;10.00;;
5303;SDS011;2674;49.722;10.892;2022-12-07T15:23:48;16.43;;;10.30;;
5303;SDS011;2674;49.722;10.892;2022-12-07T15:26:15;15.77;;;9.87;;
5303;SDS011;2674;49.722;10.892;2022-12-07T15:28:41;15.20;;;9.77;;
5303;SDS011;2674;49.722;10.892;2022-12-07T15:31:16;20.30;;;9.70;;
5303;SDS011;2674;49.722;10.892;2022-12-07T15:33:43;17.07;;;10.90;;
5303;SDS011;2674;49.722;10.892;2022-12-07T15:36:11;14.20;;;10.43;;
5303;SDS011;2674;49.722;10.892;2022-12-07T15:38:49;13.23;;;8.67;;
5303;SDS011;2674;49.722;10.892;2022-12-07T15:41:15;15.57;;;9.50;;
5303;SDS011;2674;49.722;10.892;2022-12-07T15:43:42;18.10;;;9.50;;
5303;SDS011;2674;49.722;10.892;2022-12-07T15:46:30;14.30;;;9.13;;
5303;SDS011;2674;49.722;10.892;2022-12-07T15:49:09;18.50;;;12.77;;
5303;SDS011;2674;49.722;10.892;2022-12-07T15:51:43;15.97;;;11.87;;
5303;SDS011;2674;49.722;10.892;2022-12-07T15:54:13;17.37;;;11.03;;
5303;SDS011;2674;49.722;10.892;2022-12-07T15:56:44;21.53;;;10.93;;
5303;SDS011;2674;49.722;10.892;2022-12-07T15:59:09;16.70;;;9.80;;
5303;SDS011;2674;49.722;10.892;2022-12-07T16:01:35;16.00;;;10.00;;
5303;SDS011;2674;49.722;10.892;2022-12-07T16:04:01;21.10;;;11.37;;
5303;SDS011;2674;49.722;10.892;2022-12-07T16:06:27;16.43;;;11.23;;
5303;SDS011;2674;49.722;10.892;2022-12-07T16:08:53;16.97;;;10.10;;
5303;SDS011;2674;49.722;10.892;2022-12-07T16:11:19;17.03;;;11.13;;
5303;SDS011;2674;49.722;10.892;2022-12-07T16:13:45;19.37;;;10.53;;
5303;SDS011;2674;49.722;10.892;2022-12-07T16:16:12;19.33;;;10.57;;
5303;SDS011;2674;49.722;10.892;2022-12-07T16:18:41;16.03;;;11.20;;
5303;SDS011;2674;49.722;10.892;2022-12-07T16:21:07;20.13;;;10.63;;
5303;SDS011;2674;49.722;10.892;2022-12-07T16:23:33;22.43;;;13.10;;
5303;SDS011;2674;49.722;10.892;2022-12-07T16:26:04;20.07;;;12.17;;
5303;SDS011;2674;49.722;10.892;2022-12-07T16:28:31;20.07;;;12.93;;
5303;SDS011;2674;49.722;10.892;2022-12-07T16:31:04;25.40;;;11.97;;
5303;SDS011;2674;49.722;10.892;2022-12-07T16:33:35;23.90;;;13.37;;
5303;SDS011;2674;49.722;10.892;2022-12-07T16:36:02;21.97;;;12.37;;
5303;SDS011;2674;49.722;10.892;2022-12-07T16:38:29;21.63;;;12.63;;
5303;SDS011;2674;49.722;10.892;2022-12-07T16:40:55;27.60;;;14.17;;
5303;SDS011;2674;49.722;10.892;2022-12-07T16:43:21;24.33;;;13.63;;
5303;SDS011;2674;49.722;10.892;2022-12-07T16:45:47;25.47;;;13.53;;
5303;SDS011;2674;49.722;10.892;2022-12-07T16:48:14;19.00;;;12.13;;
5303;SDS011;2674;49.722;10.892;2022-12-07T16:50:40;18.73;;;12.60;;
5303;SDS011;2674;49.722;10.892;2022-12-07T16:53:09;20.57;;;12.50;;
5303;SDS011;2674;49.722;10.892;2022-12-07T16:55:39;20.57;;;12.13;;
5303;SDS011;2674;49.722;10.892;2022-12-07T16:58:06;18.90;;;11.77;;
5303;SDS011;2674;49.722;10.892;2022-12-07T17:00:33;19.47;;;12.60;;
5303;SDS011;2674;49.722;10.892;2022-12-07T17:02:59;27.57;;;13.43;;
5303;SDS011;2674;49.722;10.892;2022-12-07T17:05:27;25.37;;;13.40;;
5303;SDS011;2674;49.722;10.892;2022-12-07T17:07:54;20.70;;;12.13;;
5303;SDS011;2674;49.722;10.892;2022-12-07T17:10:21;21.90;;;13.50;;
5303;SDS011;2674;49.722;10.892;2022-12-07T17:12:48;24.73;;;13.90;;
5303;SDS011;2674;49.722;10.892;2022-12-07T17:15:14;22.10;;;13.43;;
5303;SDS011;2674;49.722;10.892;2022-12-07T17:17:56;24.30;;;14.10;;
5303;SDS011;2674;49.722;10.892;2022-12-07T17:20:23;24.23;;;13.60;;
5303;SDS011;2674;49.722;10.892;2022-12-07T17:22:51;26.97;;;14.83;;